Laird, Colorado
Current Conditions -  °F | °C
As of 6:35 AM on Wednesday 22 Oct 2014 (Local Time) from K2V5 Reporting Station
Overcast Overcast  
Wind Chill: 56°   Ceiling: 10000
Heat Index: 56°   Visibility: 10mi
Dew Point: 47°   Wind: 5mph
Humidity: 71%   Direction: 330°NNW
Pressure: 29.97"   Gusts: NA
Location:  40.1407°N, 102.218°W
Report Text: K2V5 221235Z AUTO 33004KT 10SM OVC100 13/08 A2997 RMK AO2 T01330082
Loading
Personal Weather Stations






























Interactive Weather Map
Tropical Storm Tracking
New forecast layout! Learn more

10-Day Weather Forecast

Advertisements
Track Severe Weather on mobile